Time;durP1;ratioP1;P1;durP2;ratioP2;P2;SDS_P1;SDS_P2;PMS_P1;PMS_P2;Temp;Humidity;BMP_temperature;BMP_pressure;BME280_temperature;BME280_humidity;BME280_pressure;Samples;Min_cycle;Max_cycle;Signal;HPM_P1;HPM_P2
2022/10/09 00:02:36;;;;;;;;;;;;;;;3.85;100.00;100484.06;4939760;28;20266;-91
2022/10/09 00:07:47;;;;;;;;;;;;;;;3.79;100.00;100475.31;5059284;23;19936;-91
2022/10/09 00:10:12;;;;;;;;;;;;;;;3.82;100.00;100480.53;4995045;28;20367;-88
2022/10/09 00:13:07;;;;;;;;;;;;;;;3.85;100.00;100484.06;4993815;28;19948;-94
2022/10/09 00:15:51;;;;;;;;;;;;;;;3.85;100.00;100478.81;4921729;23;20282;-90
2022/10/09 00:18:17;;;;;;;;;;;;;;;3.84;100.00;100471.81;4950550;28;19929;-86
2022/10/09 00:20:43;;;;;;;;;;;;;;;3.78;100.00;100473.59;4947857;28;19954;-85
2022/10/09 00:23:09;;;;;;;;;;;;;;;3.80;100.00;100474.44;4951384;28;19970;-84
2022/10/09 00:25:35;;;;;;;;;;;;;;;3.88;100.00;100468.28;4953949;28;19945;-85
2022/10/09 00:31:18;;;;;;;;;;;;;;;3.81;100.00;100468.34;4944729;28;19933;-87
2022/10/09 00:33:43;;;;;;;;;;;;;;;3.84;100.00;100461.31;4980443;28;19949;-83
2022/10/09 00:36:13;;;;;;;;;;;;;;;3.85;100.00;100463.09;4979810;28;20357;-88
2022/10/09 00:38:39;;;;;;;;;;;;;;;3.81;100.00;100463.09;4961460;28;19929;-85
2022/10/09 00:41:07;;;;;;;;;;;;;;;3.82;100.00;100463.94;4983213;28;19983;-90
2022/10/09 00:44:01;;;;;;;;;;;;;;;3.89;100.00;100457.78;4967133;28;19951;-90
2022/10/09 00:46:32;;;;;;;;;;;;;;;3.88;100.00;100457.78;4937851;28;19922;-87
2022/10/09 00:49:20;;;;;;;;;;;;;;;3.94;100.00;100460.38;4977797;28;19965;-88
2022/10/09 00:51:49;;;;;;;;;;;;;;;3.89;100.00;100454.31;4967055;28;20389;-89
2022/10/09 00:54:16;;;;;;;;;;;;;;;3.87;100.00;100446.44;4977813;28;19977;-87
2022/10/09 00:56:45;;;;;;;;;;;;;;;3.97;100.00;100453.41;4964613;28;20381;-90
2022/10/09 00:59:11;;;;;;;;;;;;;;;4.01;100.00;100449.00;4977989;28;19973;-88
2022/10/09 01:01:37;;;;;;;;;;;;;;;4.00;100.00;100453.38;4980082;28;19972;-86
2022/10/09 01:04:03;;;;;;;;;;;;;;;3.98;100.00;100449.88;5053733;23;19926;-86
2022/10/09 01:06:47;;;;;;;;;;;;;;;3.92;100.00;100439.41;5053555;23;19926;-89
2022/10/09 01:09:13;;;;;;;;;;;;;;;3.99;100.00;100445.53;4969130;28;20381;-90
2022/10/09 01:12:00;;;;;;;;;;;;;;;3.98;100.00;100449.03;4974866;28;19925;-88
2022/10/09 01:14:50;;;;;;;;;;;;;;;3.98;100.00;100439.41;4966235;28;19987;-88
2022/10/09 01:17:32;;;;;;;;;;;;;;;4.05;100.00;100439.38;4962300;28;20020;-86
2022/10/09 01:20:31;;;;;;;;;;;;;;;4.06;100.00;100439.34;4981111;28;19976;-92
2022/10/09 01:23:02;;;;;;;;;;;;;;;4.09;100.00;100441.97;4976494;28;19968;-84
2022/10/09 01:25:53;;;;;;;;;;;;;;;4.09;100.00;100441.09;4991101;28;19925;-91
2022/10/09 01:28:19;;;;;;;;;;;;;;;4.01;100.00;100446.38;4982890;23;19930;-84
2022/10/09 01:30:47;;;;;;;;;;;;;;;4.02;100.00;100442.00;4964886;28;20376;-92
2022/10/09 01:33:19;;;;;;;;;;;;;;;4.11;100.00;100441.94;4963477;28;19926;-88
2022/10/09 01:36:19;;;;;;;;;;;;;;;4.07;100.00;100438.50;4976034;23;19921;-92
2022/10/09 01:39:10;;;;;;;;;;;;;;;4.23;100.00;100436.63;4988880;28;20056;-92
2022/10/09 01:41:39;;;;;;;;;;;;;;;4.22;100.00;100432.25;4989582;28;19945;-91
2022/10/09 01:44:31;;;;;;;;;;;;;;;4.21;100.00;100434.91;4982176;28;19926;-93
2022/10/09 01:46:57;;;;;;;;;;;;;;;4.28;100.00;100426.97;4987150;28;19926;-90
2022/10/09 01:49:32;;;;;;;;;;;;;;;4.34;100.00;100423.44;4992747;28;20304;-87
2022/10/09 01:52:15;;;;;;;;;;;;;;;4.28;100.00;100416.47;4992096;28;20948;-88
2022/10/09 01:54:46;;;;;;;;;;;;;;;4.32;100.00;100426.09;4992190;28;20357;-92
2022/10/09 01:57:13;;;;;;;;;;;;;;;4.33;100.00;100413.81;4992296;28;19921;-87
2022/10/09 01:59:41;;;;;;;;;;;;;;;4.46;100.00;100410.22;4990880;28;20353;-86
2022/10/09 02:02:07;;;;;;;;;;;;;;;4.41;100.00;100411.16;4995270;28;20005;-84
2022/10/09 02:04:34;;;;;;;;;;;;;;;4.44;100.00;100405.88;4996285;28;19917;-86
2022/10/09 02:06:59;;;;;;;;;;;;;;;4.58;100.00;100404.03;4995919;28;19917;-87
2022/10/09 02:09:24;;;;;;;;;;;;;;;4.47;100.00;100401.47;4993509;28;20063;-89
2022/10/09 02:11:54;;;;;;;;;;;;;;;4.48;100.00;100391.84;4988633;28;19922;-88
2022/10/09 02:14:19;;;;;;;;;;;;;;;4.51;100.00;100390.06;4977323;28;19922;-86
2022/10/09 02:16:46;;;;;;;;;;;;;;;4.58;100.00;100385.66;4995960;28;19918;-90
2022/10/09 02:19:11;;;;;;;;;;;;;;;4.52;100.00;100386.56;4986443;28;19925;-89
2022/10/09 02:21:45;;;;;;;;;;;;;;;4.59;100.00;100381.25;4978198;28;20400;-87
2022/10/09 02:24:15;;;;;;;;;;;;;;;4.71;100.00;100368.03;4995622;28;19926;-87
2022/10/09 02:26:41;;;;;;;;;;;;;;;4.59;100.00;100373.38;4994352;28;19929;-87
2022/10/09 02:29:06;;;;;;;;;;;;;;;4.67;100.00;100368.94;4977042;28;20004;-87
2022/10/09 02:31:33;;;;;;;;;;;;;;;4.69;100.00;100369.78;4976073;28;19925;-88
2022/10/09 03:35:56;;;;;;;;;;;;;;;4.81;100.00;100346.03;5012589;28;19928;-87
2022/10/09 03:38:21;;;;;;;;;;;;;;;4.89;100.00;100336.31;4996516;28;19925;-89
2022/10/09 03:40:46;;;;;;;;;;;;;;;4.91;100.00;100342.44;5013885;28;19917;-87
2022/10/09 03:43:11;;;;;;;;;;;;;;;4.96;100.00;100338.88;5013993;28;20287;-89
2022/10/09 03:45:41;;;;;;;;;;;;;;;4.91;100.00;100342.44;5013433;28;19918;-91
2022/10/09 03:48:07;;;;;;;;;;;;;;;5.05;100.00;100344.03;4996147;28;19928;-90
2022/10/09 03:50:32;;;;;;;;;;;;;;;4.98;100.00;100337.97;5013710;28;19924;-89
2022/10/09 03:52:57;;;;;;;;;;;;;;;4.89;100.00;100336.31;5014021;28;19925;-86
2022/10/09 03:55:22;;;;;;;;;;;;;;;4.88;100.00;100334.59;5013659;28;19921;-88
2022/10/09 03:57:48;;;;;;;;;;;;;;;4.94;100.00;100333.63;5013688;28;19932;-87
2022/10/09 04:00:13;;;;;;;;;;;;;;;4.85;100.00;100331.09;5013575;28;19922;-88
2022/10/09 04:02:38;;;;;;;;;;;;;;;4.98;100.00;100337.09;4994513;28;19970;-88
2022/10/09 04:05:04;;;;;;;;;;;;;;;4.95;100.00;100338.00;5013500;28;20376;-86
2022/10/09 04:07:29;;;;;;;;;;;;;;;4.98;100.00;100331.84;4995719;28;19922;-86
2022/10/09 04:09:54;;;;;;;;;;;;;;;4.89;100.00;100335.44;5013438;28;19926;-86
2022/10/09 04:12:20;;;;;;;;;;;;;;;4.96;100.00;100336.25;5013342;28;19921;-86
2022/10/09 04:14:45;;;;;;;;;;;;;;;4.96;100.00;100338.88;5013251;28;19921;-86
2022/10/09 04:17:10;;;;;;;;;;;;;;;4.93;100.00;100338.91;4994706;28;20601;-87
2022/10/09 04:19:35;;;;;;;;;;;;;;;4.98;100.00;100334.47;4995460;28;19959;-87
2022/10/09 04:22:01;;;;;;;;;;;;;;;5.06;100.00;100325.63;4995550;28;19917;-89
2022/10/09 04:24:26;;;;;;;;;;;;;;;5.03;100.00;100330.06;5013119;28;19961;-87
2022/10/09 04:26:52;;;;;;;;;;;;;;;5.04;100.00;100329.16;5013102;28;19918;-89
2022/10/09 04:29:17;;;;;;;;;;;;;;;5.05;100.00;100330.91;4995439;28;19925;-88
2022/10/09 04:31:42;;;;;;;;;;;;;;;5.02;100.00;100325.69;5011815;28;19918;-89
2022/10/09 04:34:08;;;;;;;;;;;;;;;5.01;100.00;100330.06;4979119;28;19925;-89
2022/10/09 04:36:33;;;;;;;;;;;;;;;4.99;100.00;100323.09;5012874;28;19980;-90
2022/10/09 04:38:58;;;;;;;;;;;;;;;5.01;100.00;100324.81;5012995;28;20008;-91
2022/10/09 04:41:23;;;;;;;;;;;;;;;5.03;100.00;100327.44;5012906;28;20396;-89
2022/10/09 04:43:52;;;;;;;;;;;;;;;5.06;100.00;100320.38;5013032;28;19964;-89
2022/10/09 04:46:18;;;;;;;;;;;;;;;4.99;100.00;100320.47;5011072;28;19918;-90
2022/10/09 04:48:45;;;;;;;;;;;;;;;4.98;100.00;100323.97;4995138;28;19928;-92
2022/10/09 04:51:10;;;;;;;;;;;;;;;5.01;100.00;100316.94;5012746;28;19926;-91
2022/10/09 04:53:36;;;;;;;;;;;;;;;5.05;100.00;100328.28;5012544;28;19917;-91
2022/10/09 04:56:02;;;;;;;;;;;;;;;5.13;100.00;100315.91;5012551;28;19952;-90
2022/10/09 04:58:28;;;;;;;;;;;;;;;5.09;100.00;100319.47;5012560;28;19921;-91
2022/10/09 05:00:53;;;;;;;;;;;;;;;5.13;100.00;100309.78;5011491;28;19972;-90
2022/10/09 05:03:24;;;;;;;;;;;;;;;5.07;100.00;100316.88;4995045;28;19930;-88
2022/10/09 05:05:49;;;;;;;;;;;;;;;5.22;100.00;100317.56;4994609;28;19921;-91
2022/10/09 05:08:14;;;;;;;;;;;;;;;5.17;100.00;100317.63;4994847;28;20281;-88
2022/10/09 05:10:39;;;;;;;;;;;;;;;5.15;100.00;100316.75;5012533;28;19921;-92
2022/10/09 05:13:05;;;;;;;;;;;;;;;5.23;100.00;100314.03;5012162;28;19939;-91
2022/10/09 05:15:31;;;;;;;;;;;;;;;5.10;100.00;100321.19;5012263;28;20429;-88
2022/10/09 05:17:56;;;;;;;;;;;;;;;5.19;100.00;100318.47;5011064;28;20289;-89
2022/10/09 05:20:21;;;;;;;;;;;;;;;5.20;100.00;100319.31;4994468;28;19924;-89
2022/10/09 05:22:47;;;;;;;;;;;;;;;5.20;100.00;100320.22;4993476;28;20442;-88
2022/10/09 05:25:12;;;;;;;;;;;;;;;5.18;100.00;100321.97;5012196;28;20392;-89
2022/10/09 05:27:37;;;;;;;;;;;;;;;5.16;100.00;100322.91;4985706;28;20364;-89
2022/10/09 05:30:04;;;;;;;;;;;;;;;5.20;100.00;100325.47;5012212;28;19928;-89
2022/10/09 05:32:29;;;;;;;;;;;;;;;5.08;100.00;100320.34;5010247;28;19918;-88
2022/10/09 05:35:03;;;;;;;;;;;;;;;5.21;100.00;100316.69;5012254;28;19928;-89
2022/10/09 12:51:52;;;;;;;;;;;;;;;6.52;100.00;99933.00;5250726;23;19934;-85
2022/10/09 12:54:19;;;;;;;;;;;;;;;6.62;100.00;99938.94;4990361;28;19925;-87
2022/10/09 12:59:33;;;;;;;;;;;;;;;6.26;100.00;99940.66;4979194;28;20031;-87
2022/10/09 13:01:58;;;;;;;;;;;;;;;6.32;100.00;99935.25;4990586;28;19925;-87
2022/10/09 13:04:29;;;;;;;;;;;;;;;6.52;100.00;99942.66;4974624;28;19922;-89
2022/10/09 13:06:55;;;;;;;;;;;;;;;6.66;100.00;99930.03;4973985;28;19918;-92
2022/10/09 13:09:23;;;;;;;;;;;;;;;6.54;100.00;99919.78;4972958;28;19937;-93
2022/10/09 13:11:52;;;;;;;;;;;;;;;6.48;100.00;99922.59;4990307;28;20336;-88
2022/10/09 13:14:24;;;;;;;;;;;;;;;6.55;100.00;99914.50;4973473;28;19928;-87
2022/10/09 13:16:49;;;;;;;;;;;;;;;6.73;100.00;99909.66;4975006;28;19922;-86
2022/10/09 13:19:25;;;;;;;;;;;;;;;6.63;100.00;99913.44;4990703;28;20277;-90
2022/10/09 13:21:59;;;;;;;;;;;;;;;6.62;100.00;99899.44;4974297;28;20004;-90
2022/10/09 13:24:25;;;;;;;;;;;;;;;6.79;100.00;99899.00;4988364;28;19926;-90
2022/10/09 13:26:50;;;;;;;;;;;;;;;6.53;100.00;99892.59;4991101;28;19925;-90
2022/10/09 13:29:15;;;;;;;;;;;;;;;6.73;100.00;99888.59;4991556;28;19929;-90
2022/10/09 13:31:44;;;;;;;;;;;;;;;6.68;100.00;99891.34;4990421;28;19953;-90
2022/10/09 13:34:13;;;;;;;;;;;;;;;6.60;100.00;99888.06;4990215;28;19922;-90
2022/10/09 13:36:39;;;;;;;;;;;;;;;6.58;100.00;99881.97;4972162;28;19925;-90
2022/10/09 13:39:04;;;;;;;;;;;;;;;6.58;100.00;99879.34;4973696;28;19925;-89
2022/10/09 13:41:30;;;;;;;;;;;;;;;6.39;100.00;99868.41;4991833;28;19921;-92
2022/10/09 13:43:56;;;;;;;;;;;;;;;6.56;100.00;99870.63;4975580;28;19976;-90
2022/10/09 13:46:21;;;;;;;;;;;;;;;6.53;100.00;99865.44;4989617;28;19961;-90
2022/10/09 13:48:46;;;;;;;;;;;;;;;6.58;100.00;99862.69;4988665;28;20284;-92
2022/10/09 13:51:12;;;;;;;;;;;;;;;6.64;100.00;99852.84;4989518;28;19925;-90
2022/10/09 13:53:37;;;;;;;;;;;;;;;6.73;100.00;99859.63;4990473;28;19929;-90
2022/10/09 13:56:02;;;;;;;;;;;;;;;6.64;100.00;99852.84;4990738;28;19918;-90
2022/10/09 13:58:28;;;;;;;;;;;;;;;6.73;100.00;99850.00;4976395;28;19929;-89
2022/10/09 14:00:53;;;;;;;;;;;;;;;6.73;100.00;99847.34;4976113;28;19968;-90
2022/10/09 14:03:19;;;;;;;;;;;;;;;6.80;100.00;99850.69;4977836;28;19933;-90
2022/10/09 14:05:44;;;;;;;;;;;;;;;6.81;100.00;99849.78;4989085;28;19922;-91
2022/10/09 14:08:10;;;;;;;;;;;;;;;6.78;100.00;99835.81;4976701;28;20408;-89
2022/10/09 14:10:40;;;;;;;;;;;;;;;6.76;100.00;99838.50;4975677;28;19922;-89
2022/10/09 14:13:06;;;;;;;;;;;;;;;6.87;100.00;99832.94;4993132;28;19956;-90
2022/10/09 14:15:31;;;;;;;;;;;;;;;6.90;100.00;99835.50;4977372;28;19925;-90
2022/10/09 14:17:56;;;;;;;;;;;;;;;6.63;100.00;99823.94;4994924;28;19930;-90
2022/10/09 14:20:23;;;;;;;;;;;;;;;6.61;100.00;99823.97;4976512;28;19922;-89
2022/10/09 14:22:49;;;;;;;;;;;;;;;6.72;100.00;99824.56;4977983;28;19930;-88
2022/10/09 14:25:14;;;;;;;;;;;;;;;6.78;100.00;99817.38;4993262;28;19929;-90
2022/10/09 14:27:39;;;;;;;;;;;;;;;6.51;100.00;99819.81;4992757;28;19928;-89
2022/10/09 14:30:05;;;;;;;;;;;;;;;6.53;100.00;99818.03;4978212;28;19969;-89
2022/10/09 14:32:30;;;;;;;;;;;;;;;6.60;100.00;99809.06;4977345;28;19926;-90
2022/10/09 14:34:56;;;;;;;;;;;;;;;6.47;100.00;99823.47;4977337;28;20287;-90
2022/10/09 14:37:21;;;;;;;;;;;;;;;6.47;100.00;99805.03;4993651;28;19922;-88
2022/10/09 14:39:49;;;;;;;;;;;;;;;6.70;100.00;99805.31;4993114;28;19992;-91
2022/10/09 14:42:15;;;;;;;;;;;;;;;6.83;100.00;99803.19;4977508;28;19922;-90
2022/10/09 14:44:40;;;;;;;;;;;;;;;6.85;100.00;99804.00;4994126;28;19933;-90
2022/10/09 14:47:05;;;;;;;;;;;;;;;6.95;100.00;99799.34;4994126;28;19918;-90
2022/10/09 14:49:30;;;;;;;;;;;;;;;6.93;100.00;99795.91;4976897;28;19925;-89
2022/10/09 14:51:56;;;;;;;;;;;;;;;6.77;100.00;99789.34;4992353;28;19966;-88
2022/10/09 14:54:21;;;;;;;;;;;;;;;6.73;100.00;99781.53;4993977;28;19926;-90
2022/10/09 14:56:46;;;;;;;;;;;;;;;6.68;100.00;99782.53;4977926;28;20261;-89
2022/10/09 14:59:12;;;;;;;;;;;;;;;6.87;100.00;99775.00;4993660;28;19925;-90
2022/10/09 15:01:37;;;;;;;;;;;;;;;6.74;100.00;99774.47;4993677;28;19980;-89
2022/10/09 15:04:12;;;;;;;;;;;;;;;7.00;100.00;99772.88;4993535;28;20365;-89
2022/10/09 15:06:38;;;;;;;;;;;;;;;6.85;100.00;99767.13;4991913;28;20247;-90
2022/10/09 15:09:04;;;;;;;;;;;;;;;6.79;100.00;99772.56;4990289;28;19926;-90
2022/10/09 15:11:30;;;;;;;;;;;;;;;6.98;100.00;99765.03;4992811;28;19957;-90
2022/10/09 15:13:55;;;;;;;;;;;;;;;6.90;100.00;99769.66;4992113;28;20017;-90
2022/10/09 15:16:21;;;;;;;;;;;;;;;6.86;100.00;99762.72;4993153;28;20017;-90
2022/10/09 15:18:50;;;;;;;;;;;;;;;6.89;100.00;99758.25;4992912;28;19922;-90
2022/10/09 15:21:20;;;;;;;;;;;;;;;7.03;100.00;99759.63;4992551;28;19933;-91
2022/10/09 15:23:46;;;;;;;;;;;;;;;6.96;100.00;99751.03;4977111;28;20365;-88
2022/10/09 15:26:12;;;;;;;;;;;;;;;6.90;100.00;99757.31;4977309;28;19968;-89
2022/10/09 15:28:39;;;;;;;;;;;;;;;6.92;100.00;99759.91;4992664;28;20369;-88
2022/10/09 15:31:05;;;;;;;;;;;;;;;6.94;100.00;99749.34;4975039;28;19921;-88
2022/10/09 15:33:31;;;;;;;;;;;;;;;7.04;100.00;99749.03;4975852;28;19921;-90
2022/10/09 15:35:56;;;;;;;;;;;;;;;7.01;100.00;99749.13;4976395;28;19932;-90
2022/10/09 15:38:22;;;;;;;;;;;;;;;6.87;100.00;99756.56;4993575;28;19924;-88
2022/10/09 15:40:50;;;;;;;;;;;;;;;6.91;100.00;99750.31;4974773;28;19922;-90
2022/10/09 15:43:17;;;;;;;;;;;;;;;6.88;100.00;99745.13;4992276;28;19977;-90
2022/10/09 15:45:42;;;;;;;;;;;;;;;6.99;100.00;99743.03;4991732;28;20295;-88
2022/10/09 15:48:13;;;;;;;;;;;;;;;7.06;100.00;99738.47;4975928;28;19921;-89
2022/10/09 15:50:38;;;;;;;;;;;;;;;7.00;100.00;99733.38;4975188;28;19918;-89
2022/10/09 15:53:09;;;;;;;;;;;;;;;7.08;100.00;99737.50;4987280;28;20293;-90
2022/10/09 15:55:38;;;;;;;;;;;;;;;7.22;100.00;99734.44;4978317;28;19984;-89
2022/10/09 15:58:03;;;;;;;;;;;;;;;7.00;100.00;99730.72;4965005;28;19980;-89
2022/10/09 16:00:28;;;;;;;;;;;;;;;7.04;100.00;99735.88;4984178;28;19918;-89
2022/10/09 16:02:54;;;;;;;;;;;;;;;7.17;100.00;99727.59;4979834;28;19937;-91
2022/10/09 16:05:19;;;;;;;;;;;;;;;7.14;100.00;99732.97;4964285;28;20273;-88
2022/10/09 16:07:45;;;;;;;;;;;;;;;7.06;100.00;99722.66;4984410;28;20294;-87
2022/10/09 16:10:10;;;;;;;;;;;;;;;7.04;100.00;99720.06;4982425;28;19918;-88
2022/10/09 16:12:35;;;;;;;;;;;;;;;7.07;100.00;99719.97;4978176;28;19922;-89
2022/10/09 16:15:01;;;;;;;;;;;;;;;7.12;100.00;99721.63;4982313;28;19970;-88
2022/10/09 16:17:26;;;;;;;;;;;;;;;7.17;100.00;99717.06;4980787;28;20591;-88
2022/10/09 16:19:52;;;;;;;;;;;;;;;7.09;100.00;99720.78;4980258;28;19979;-87
2022/10/09 16:22:17;;;;;;;;;;;;;;;7.07;100.00;99719.13;4980990;28;20374;-87
2022/10/09 16:24:42;;;;;;;;;;;;;;;7.12;100.00;99727.75;4980835;28;19929;-87
2022/10/09 16:27:08;;;;;;;;;;;;;;;7.02;100.00;99726.28;4982728;28;19926;-88
2022/10/09 16:29:33;;;;;;;;;;;;;;;7.06;100.00;99720.00;4980725;28;20293;-89
2022/10/09 16:31:58;;;;;;;;;;;;;;;7.09;100.00;99723.41;4981676;28;19973;-88
2022/10/09 16:34:24;;;;;;;;;;;;;;;7.17;100.00;99724.97;4965103;28;19928;-88
2022/10/09 16:36:49;;;;;;;;;;;;;;;7.11;100.00;99717.25;4975317;28;20468;-90
2022/10/09 16:39:14;;;;;;;;;;;;;;;7.13;100.00;99724.19;4963989;28;19922;-89
2022/10/09 16:41:39;;;;;;;;;;;;;;;7.12;100.00;99726.88;4959425;28;20009;-86
2022/10/09 16:44:12;;;;;;;;;;;;;;;7.17;100.00;99730.25;4973319;28;19941;-89
2022/10/09 16:46:37;;;;;;;;;;;;;;;7.11;100.00;99735.69;4966080;28;20021;-89
2022/10/09 16:49:02;;;;;;;;;;;;;;;7.11;100.00;99730.41;4980268;28;20348;-90
2022/10/09 16:51:32;;;;;;;;;;;;;;;7.11;100.00;99726.00;4972120;28;19930;-88
2022/10/09 16:53:58;;;;;;;;;;;;;;;7.17;100.00;99735.50;4989796;28;19929;-89
2022/10/09 16:56:26;;;;;;;;;;;;;;;7.06;100.00;99735.81;4975574;28;19944;-88
2022/10/09 16:58:58;;;;;;;;;;;;;;;7.09;100.00;99739.22;4993249;28;19918;-89
2022/10/09 17:01:24;;;;;;;;;;;;;;;6.99;100.00;99740.41;4992935;28;19958;-88
2022/10/09 17:03:51;;;;;;;;;;;;;;;7.13;100.00;99731.22;4990573;28;20008;-89
2022/10/09 17:06:22;;;;;;;;;;;;;;;7.17;100.00;99731.09;4972709;28;20016;-88
2022/10/09 17:08:48;;;;;;;;;;;;;;;7.18;100.00;99729.31;4989958;28;19925;-89
2022/10/09 17:11:14;;;;;;;;;;;;;;;7.21;100.00;99735.38;4992651;28;20387;-88
2022/10/09 17:13:39;;;;;;;;;;;;;;;7.11;100.00;99736.53;4991307;28;19928;-90
2022/10/09 17:16:06;;;;;;;;;;;;;;;7.12;100.00;99732.16;4972181;28;19922;-89
2022/10/09 17:18:31;;;;;;;;;;;;;;;7.14;100.00;99735.59;4974537;28;19922;-89
2022/10/09 17:20:59;;;;;;;;;;;;;;;7.16;100.00;99741.69;4989855;28;20395;-89
2022/10/09 17:23:24;;;;;;;;;;;;;;;7.19;100.00;99739.81;4975374;28;19944;-88
2022/10/09 17:25:50;;;;;;;;;;;;;;;7.08;100.00;99742.78;4975408;28;20361;-90
2022/10/09 17:28:15;;;;;;;;;;;;;;;7.14;100.00;99741.72;4974456;28;19928;-88
2022/10/09 17:30:40;;;;;;;;;;;;;;;7.23;100.00;99745.88;4992930;28;20024;-90
2022/10/09 17:33:08;;;;;;;;;;;;;;;7.22;100.00;99744.13;4974732;28;19918;-89
2022/10/09 17:35:37;;;;;;;;;;;;;;;7.19;100.00;99746.88;4988914;28;20427;-88
2022/10/09 17:38:03;;;;;;;;;;;;;;;7.20;100.00;99751.25;4975785;28;19921;-90
2022/10/09 17:40:28;;;;;;;;;;;;;;;7.20;100.00;99741.53;4989734;28;19928;-88
2022/10/09 17:42:54;;;;;;;;;;;;;;;7.21;100.00;99742.41;4973903;28;19972;-87
2022/10/09 17:45:19;;;;;;;;;;;;;;;7.26;100.00;99740.53;4992927;28;19921;-87
2022/10/09 17:47:44;;;;;;;;;;;;;;;7.26;100.00;99745.78;4984945;28;19926;-88
2022/10/09 17:50:16;;;;;;;;;;;;;;;7.16;100.00;99739.91;4971086;28;19976;-89
2022/10/09 17:52:41;;;;;;;;;;;;;;;7.17;100.00;99738.16;4972779;28;20453;-89
2022/10/09 17:55:07;;;;;;;;;;;;;;;7.23;100.00;99743.25;4955975;28;19997;-88
2022/10/09 17:57:32;;;;;;;;;;;;;;;7.20;100.00;99730.16;4973226;28;19921;-87
2022/10/09 18:00:00;;;;;;;;;;;;;;;7.20;100.00;99735.44;4970575;28;20006;-89
2022/10/09 18:02:27;;;;;;;;;;;;;;;7.21;100.00;99738.00;4972200;28;19922;-91
2022/10/09 18:04:56;;;;;;;;;;;;;;;7.19;100.00;99736.31;4969257;28;19922;-89
2022/10/09 18:07:21;;;;;;;;;;;;;;;7.11;100.00;99735.69;4972445;28;19922;-90
2022/10/09 18:09:48;;;;;;;;;;;;;;;7.14;100.00;99735.59;4972905;28;20001;-90
2022/10/09 18:12:14;;;;;;;;;;;;;;;7.29;100.00;99729.84;4971008;28;19994;-88
2022/10/09 18:14:39;;;;;;;;;;;;;;;7.37;100.00;99733.16;4971444;28;20021;-89
2022/10/09 18:17:04;;;;;;;;;;;;;;;7.28;100.00;99730.78;4951608;28;20445;-89
2022/10/09 18:19:29;;;;;;;;;;;;;;;7.31;100.00;99724.53;4954290;28;19931;-89
2022/10/09 18:21:55;;;;;;;;;;;;;;;7.38;100.00;99724.31;4951871;28;20853;-90
2022/10/09 18:24:20;;;;;;;;;;;;;;;7.39;100.00;99718.13;4953825;28;19949;-89
2022/10/09 18:26:45;;;;;;;;;;;;;;;7.37;100.00;99721.72;4972081;28;19977;-89
2022/10/09 18:29:11;;;;;;;;;;;;;;;7.38;100.00;99716.41;4972068;28;20018;-89
2022/10/09 18:31:37;;;;;;;;;;;;;;;7.38;100.00;99724.31;4955300;28;19933;-89
2022/10/09 18:34:02;;;;;;;;;;;;;;;7.39;100.00;99725.19;4972558;28;19944;-89
2022/10/09 18:36:30;;;;;;;;;;;;;;;7.34;100.00;99725.31;4972230;28;20436;-90
2022/10/09 18:39:10;;;;;;;;;;;;;;;7.30;100.00;99721.03;4955527;28;19925;-90
2022/10/09 18:41:38;;;;;;;;;;;;;;;7.32;100.00;99724.50;4972397;28;19966;-93
2022/10/09 18:44:06;;;;;;;;;;;;;;;7.32;100.00;99718.38;4975233;28;19922;-91
2022/10/09 18:46:39;;;;;;;;;;;;;;;7.36;100.00;99718.22;4949287;28;19922;-90
2022/10/09 18:49:06;;;;;;;;;;;;;;;7.41;100.00;99716.31;4957667;28;19933;-90
2022/10/09 18:51:32;;;;;;;;;;;;;;;7.46;100.00;99716.16;4956785;28;19918;-88
2022/10/09 18:54:00;;;;;;;;;;;;;;;7.40;100.00;99705.81;4957266;28;19929;-89
2022/10/09 18:56:28;;;;;;;;;;;;;;;7.42;100.00;99710.13;4974827;28;19941;-90
2022/10/09 18:58:53;;;;;;;;;;;;;;;7.48;100.00;99713.47;4975627;28;20421;-89
2022/10/09 19:01:19;;;;;;;;;;;;;;;7.50;100.00;99707.25;4975788;28;19922;-89
2022/10/09 19:03:44;;;;;;;;;;;;;;;7.55;100.00;99715.03;4974311;28;19925;-90
2022/10/09 19:06:10;;;;;;;;;;;;;;;7.57;100.00;99707.94;4974675;28;19927;-91
2022/10/09 19:08:35;;;;;;;;;;;;;;;7.57;100.00;99713.19;4950243;28;19925;-90
2022/10/09 19:11:05;;;;;;;;;;;;;;;7.62;100.00;99703.38;4975222;28;20281;-89
2022/10/09 19:13:31;;;;;;;;;;;;;;;7.58;100.00;99699.13;4956605;28;19926;-89
2022/10/09 19:15:57;;;;;;;;;;;;;;;7.59;100.00;99700.81;4957332;28;20445;-89
2022/10/09 19:18:23;;;;;;;;;;;;;;;7.68;100.00;99699.69;4974368;28;19926;-89
2022/10/09 19:20:48;;;;;;;;;;;;;;;7.70;100.00;99701.34;4955033;28;20392;-88
2022/10/09 19:23:14;;;;;;;;;;;;;;;7.67;100.00;99696.16;4956127;28;19926;-89
2022/10/09 19:25:51;;;;;;;;;;;;;;;7.66;100.00;99696.22;4974269;28;19926;-88
2022/10/09 19:28:16;;;;;;;;;;;;;;;7.62;100.00;99692.81;4957216;28;20357;-89
2022/10/09 19:30:42;;;;;;;;;;;;;;;7.67;100.00;99693.53;4974899;28;19929;-88
2022/10/09 19:33:09;;;;;;;;;;;;;;;7.74;100.00;99695.06;4973215;28;19926;-88
2022/10/09 19:35:42;;;;;;;;;;;;;;;7.71;100.00;99684.59;4973651;28;19941;-92
2022/10/09 19:38:07;;;;;;;;;;;;;;;7.71;100.00;99687.25;4957400;28;20390;-89
2022/10/09 19:40:35;;;;;;;;;;;;;;;7.75;100.00;99691.50;4956744;28;19961;-88
2022/10/09 19:43:00;;;;;;;;;;;;;;;7.76;100.00;99689.75;4956166;28;19918;-88
2022/10/09 19:45:34;;;;;;;;;;;;;;;7.73;100.00;99689.84;4956448;28;20406;-89
2022/10/09 19:48:11;;;;;;;;;;;;;;;7.78;100.00;99685.25;4955702;28;19993;-87
2022/10/09 19:50:47;;;;;;;;;;;;;;;7.76;100.00;99682.69;4951239;28;19918;-88
2022/10/09 19:53:13;;;;;;;;;;;;;;;7.70;100.00;99687.28;4935859;29;19933;-87
2022/10/09 19:55:38;;;;;;;;;;;;;;;7.70;100.00;99685.50;4952141;28;19918;-87
2022/10/09 19:58:03;;;;;;;;;;;;;;;7.74;100.00;99691.56;4952424;28;19919;-87
2022/10/09 20:00:29;;;;;;;;;;;;;;;7.85;100.00;99686.81;4936407;29;19965;-87
2022/10/09 20:02:54;;;;;;;;;;;;;;;7.89;100.00;99684.91;4936033;29;19919;-87
2022/10/09 20:05:20;;;;;;;;;;;;;;;7.87;100.00;99682.31;4951385;28;19926;-87
2022/10/09 20:07:45;;;;;;;;;;;;;;;7.89;100.00;99688.41;4936125;29;19922;-88
2022/10/09 20:10:10;;;;;;;;;;;;;;;7.90;100.00;99684.00;4936028;28;20018;-88
2022/10/09 20:12:36;;;;;;;;;;;;;;;7.89;100.00;99687.56;4949834;29;19926;-91
2022/10/09 20:15:02;;;;;;;;;;;;;;;7.91;100.00;99680.44;4942286;28;19922;-87
2022/10/09 20:17:27;;;;;;;;;;;;;;;7.92;100.00;99683.03;4972422;28;19922;-87
2022/10/09 20:19:52;;;;;;;;;;;;;;;7.94;100.00;99682.97;4973356;28;20820;-87
2022/10/09 20:22:18;;;;;;;;;;;;;;;7.90;100.00;99682.22;4972622;28;20009;-87
2022/10/09 20:24:43;;;;;;;;;;;;;;;7.92;100.00;99685.66;4956277;28;19972;-88
2022/10/09 20:27:08;;;;;;;;;;;;;;;7.92;100.00;99682.19;4973587;28;20384;-88
2022/10/09 20:29:34;;;;;;;;;;;;;;;7.98;100.00;99681.97;4973701;28;19929;-88
2022/10/09 20:31:59;;;;;;;;;;;;;;;7.95;100.00;99679.44;4973405;28;20021;-88
2022/10/09 20:34:25;;;;;;;;;;;;;;;7.97;100.00;99685.50;4973381;28;20388;-88
2022/10/09 20:36:51;;;;;;;;;;;;;;;7.99;100.00;99683.69;4972508;28;19995;-89
2022/10/09 20:39:18;;;;;;;;;;;;;;;8.03;100.00;99684.47;4973362;28;19931;-88
2022/10/09 20:41:44;;;;;;;;;;;;;;;8.07;100.00;99683.41;4955631;28;19929;-88
2022/10/09 20:44:10;;;;;;;;;;;;;;;7.96;100.00;99684.66;4955714;28;19926;-89
2022/10/09 20:46:37;;;;;;;;;;;;;;;8.01;100.00;99681.88;4973331;28;20460;-88
2022/10/09 20:49:03;;;;;;;;;;;;;;;8.01;100.00;99687.16;4973210;28;19918;-87
2022/10/09 20:51:29;;;;;;;;;;;;;;;8.01;100.00;99684.50;4971746;28;19922;-87
2022/10/09 20:53:56;;;;;;;;;;;;;;;8.02;100.00;99688.84;4955169;28;19929;-87
2022/10/09 20:56:22;;;;;;;;;;;;;;;8.04;100.00;99689.69;4972873;28;19969;-87
2022/10/09 20:58:47;;;;;;;;;;;;;;;8.00;100.00;99678.34;4955088;28;19928;-88
